Aeroporto :
LOGIN :

Iscrizione | Disclaimer

   EN    FR    IT 

 










Sommario :    VFR   VFR Marginale   IFR   IFR Intensivo   IFR Molto Intensivo
Visibilità : 
Base nubi : 
>= 8 km
>= 3000ft
5 / 8 km
1000 / 3000 ft
1500m / 5 km
500 / 1000 ft
800 / 1500m
200 / 500 ft
< 800m
< 200 ft
Simboli :   Temporali  Nebbia  Neve Forte  Precipitazioni Forti  Vento > 20 kt
SIGMETs :   Varie  Temporali  Ghiacco  Turbolenza  Onda orograficha  Ceneri Vulcaniche






- Altitudine del aeroporto : 622 ft
- Codice IATA : BRS


EGGD - Bristol Int.

ULTIMO METAR :
  • 221020Z AUTO 20005KT 160V240 9999 NCD 12/06 Q1024

METARs OBSOLETI :
  • 220950Z AUTO 22005KT 6000 NCD 12/06 Q1024
  • 220920Z AUTO 21004KT 170V250 6000 NCD 11/06 Q1024
  • 220850Z AUTO 20004KT 5000 HZ BKN048 10/06 Q1024
  • 220820Z AUTO VRB03KT 7000 OVC048 09/06 Q1024
  • 220750Z AUTO 19002KT 9999 OVC047 09/06 Q1023

TAF AMD TAF EGGD
Valido dal 22 a 09 ore il 23 a 06 ore UTC


220931Z 2209/2306 19006KT 6000 SCT040
BECMG 2209/2212 9999
PROB30 2221/2301 5000 BR MIFG
BECMG 2301/2304 3000 BR
PROB40 2301/2306 0300 FG VV///
ATIS : +44 1275 473 666



MetMap, La meteo Aeronautica in un colpo d'occhio ! - Copyright ORBIFLY Dicembre 2007 - Disclaimer

ORBIFLY MET'MAP TEAM :

Programmazione e sviluppo : Alexandra Zaïnal
Concezione e sviluppo : Baudouin d'Aumeries
Co-Programmazione e sviluppo : Marc-Olivier Méhu
Supporto tecnico e logistico : Manuel Goepfert
Aiuto per la traduzione : Arnaldo La Scala

Contatto : metmap@orbifly.com




FONTI E CREDITI :

   NOAA